Main page
METAR-TAF:

METAR-TAF

Airports :

Zeltweg Air Base

Zeltweg, Austria

latitude: 47-12N, longitude: 014-45E, elevation: 677 m

Current weather observation

The report was made 1 hour and 56 minutes ago, at 23:50 UTC
Wind 5 kt from the Southeast, varying between East and South
Temperature 19°C
Humidity 64%
Pressure 1019 hPa
Visibility 10 km or more
Few clouds at a height of 4200 ft
Broken clouds at a height of 4500 ft

METAR: LOXZ 242350Z 14005KT 100V170 9999 FEW042 BKN045 19/12 Q1019

Time: 03:46 (01:46 UTC)

Forecast

The report was made 11 hours and 31 minutes ago, at 14:15 UTC
Forecast valid from 24 at 15 UTC to 24 at 24 UTC
Wind 8 kt from the East
Visibility 10 km or more
Few clouds at a height of 5000 ft
Broken clouds at a height of 30000 ft
Becoming
from 24 at 16 UTC to 24 at 18 UTC
Wind 3 kt from variable directions

TAF: LOXZ 241415Z 2415/2424 10008KT 9999 FEW050 BKN300 BECMG 2416/2418 VRB03KT

Weather observations and forecasts of more than 4000 airports (METAR and TAF reports).

The available stations are represented by yellow and red dots on the map.

Hover mouse over dot to see the name of the station.

Then click to see weather observations and forecasts.

To change the map : click on the green buttons with a black cross to zoom in, on the green button with a dash to zoom out, or on the green arrows for adjacent maps.


METAR-TAF: